Time,TemperatureF,DewpointF,PressureIn,WindDirection,WindDirectionDegrees,WindSpeedMPH,WindSpeedGustMPH,Humidity,HourlyPrecipIn,Conditions,Clouds,dailyrainin,SoftwareType,DateUTC
2013-12-04 00:02:00,38.8,38.3,29.65,East,82,2.0,2.0,98,0.00,,,0.00,Wunderground v.1.15,2013-12-04 06:02:00,
2013-12-04 00:08:00,38.8,38.3,29.65,East,86,1.0,2.0,98,0.00,,,0.00,Wunderground v.1.15,2013-12-04 06:08:00,
2013-12-04 00:13:00,38.8,38.3,29.65,East,79,1.0,1.0,98,0.00,,,0.00,Wunderground v.1.15,2013-12-04 06:13:00,
2013-12-04 00:18:00,38.8,38.3,29.65,ENE,71,1.0,2.0,98,0.00,,,0.00,Wunderground v.1.15,2013-12-04 06:18:00,
2013-12-04 00:23:00,38.8,38.3,29.65,ENE,68,1.0,1.0,98,0.00,,,0.00,Wunderground v.1.15,2013-12-04 06:23:00,
2013-12-04 00:29:00,38.8,38.3,29.64,ENE,72,2.0,2.0,98,0.00,,,0.00,Wunderground v.1.15,2013-12-04 06:29:00,
2013-12-04 00:34:00,38.7,38.2,29.64,ENE,67,1.0,1.0,98,0.00,,,0.00,Wunderground v.1.15,2013-12-04 06:34:00,
2013-12-04 00:40:00,38.7,38.2,29.64,ENE,78,0.0,2.0,98,0.00,,,0.00,Wunderground v.1.15,2013-12-04 06:40:00,
2013-12-04 00:45:00,38.7,38.2,29.64,ENE,67,0.0,1.0,98,0.00,,,0.00,Wunderground v.1.15,2013-12-04 06:45:00,
2013-12-04 00:52:00,38.7,38.2,29.64,East,80,1.0,1.0,98,0.00,,,0.00,Wunderground v.1.15,2013-12-04 06:52:00,
2013-12-04 00:58:00,38.7,38.2,29.64,ENE,71,2.0,2.0,98,0.00,,,0.00,Wunderground v.1.15,2013-12-04 06:58:00,
2013-12-04 01:04:00,38.7,38.2,29.64,East,86,0.0,2.0,98,0.00,,,0.00,Wunderground v.1.15,2013-12-04 07:04:00,
2013-12-04 01:10:00,38.7,38.2,29.63,East,82,0.0,1.0,98,0.00,,,0.00,Wunderground v.1.15,2013-12-04 07:10:00,
2013-12-04 01:15:00,38.7,38.2,29.63,East,84,1.0,1.0,98,0.00,,,0.00,Wunderground v.1.15,2013-12-04 07:15:00,
2013-12-04 01:22:00,38.6,38.1,29.63,East,85,0.0,1.0,98,0.00,,,0.00,Wunderground v.1.15,2013-12-04 07:22:00,
2013-12-04 01:28:00,38.6,38.1,29.63,East,89,1.0,1.0,98,0.00,,,0.00,Wunderground v.1.15,2013-12-04 07:28:00,
2013-12-04 01:33:00,38.6,38.1,29.63,ENE,78,1.0,1.0,98,0.00,,,0.00,Wunderground v.1.15,2013-12-04 07:33:00,
2013-12-04 01:38:00,38.6,38.1,29.63,ENE,74,1.0,1.0,98,0.00,,,0.00,Wunderground v.1.15,2013-12-04 07:38:00,
2013-12-04 01:43:00,38.6,38.1,29.63,NE,43,0.0,1.0,98,0.00,,,0.00,Wunderground v.1.15,2013-12-04 07:43:00,
2013-12-04 01:49:00,38.6,38.1,29.64,ENE,76,0.0,1.0,98,0.00,,,0.00,Wunderground v.1.15,2013-12-04 07:49:00,
2013-12-04 01:54:00,38.6,38.1,29.63,ENE,76,2.0,2.0,98,0.00,,,0.00,Wunderground v.1.15,2013-12-04 07:54:00,
2013-12-04 02:00:00,38.6,38.1,29.63,ENE,72,1.0,1.0,98,0.00,,,0.00,Wunderground v.1.15,2013-12-04 08:00:00,
2013-12-04 02:05:00,38.6,38.1,29.63,ENE,57,2.0,2.0,98,0.00,,,0.00,Wunderground v.1.15,2013-12-04 08:05:00,
2013-12-04 02:10:00,38.6,38.1,29.63,ENE,63,0.0,2.0,98,0.00,,,0.00,Wunderground v.1.15,2013-12-04 08:10:00,
2013-12-04 02:15:00,38.6,38.1,29.63,ENE,76,0.0,2.0,98,0.00,,,0.00,Wunderground v.1.15,2013-12-04 08:15:00,
2013-12-04 02:20:00,38.6,38.1,29.62,ENE,61,0.0,2.0,98,0.00,,,0.00,Wunderground v.1.15,2013-12-04 08:20:00,
2013-12-04 02:25:00,38.7,38.2,29.62,ENE,59,1.0,2.0,98,0.00,,,0.00,Wunderground v.1.15,2013-12-04 08:25:00,
2013-12-04 02:30:00,38.7,38.2,29.62,East,93,2.0,2.0,98,0.00,,,0.00,Wunderground v.1.15,2013-12-04 08:30:00,
2013-12-04 02:35:00,38.7,38.2,29.62,ENE,76,2.0,3.0,98,0.00,,,0.00,Wunderground v.1.15,2013-12-04 08:35:00,
2013-12-04 02:40:00,38.7,38.2,29.62,ENE,78,2.0,5.0,98,0.00,,,0.00,Wunderground v.1.15,2013-12-04 08:40:00,
2013-12-04 02:45:00,38.7,38.2,29.61,East,81,3.0,4.0,98,0.00,,,0.00,Wunderground v.1.15,2013-12-04 08:45:00,
2013-12-04 02:50:00,38.7,38.2,29.61,East,80,0.0,5.0,98,0.00,,,0.00,Wunderground v.1.15,2013-12-04 08:50:00,
2013-12-04 02:55:00,38.7,38.2,29.61,East,81,2.0,4.0,98,0.00,,,0.00,Wunderground v.1.15,2013-12-04 08:55:00,
2013-12-04 03:00:00,38.7,38.2,29.60,East,86,2.0,5.0,98,0.00,,,0.00,Wunderground v.1.15,2013-12-04 09:00:00,
2013-12-04 03:05:00,38.7,38.2,29.60,East,86,3.0,4.0,98,0.00,,,0.00,Wunderground v.1.15,2013-12-04 09:05:00,
2013-12-04 03:10:00,38.7,38.2,29.59,East,85,1.0,2.0,98,0.00,,,0.00,Wunderground v.1.15,2013-12-04 09:10:00,
2013-12-04 03:15:00,38.6,38.1,29.59,East,85,2.0,3.0,98,0.00,,,0.00,Wunderground v.1.15,2013-12-04 09:15:00,
2013-12-04 03:20:00,38.6,38.1,29.59,East,82,3.0,3.0,98,0.00,,,0.00,Wunderground v.1.15,2013-12-04 09:20:00,
2013-12-04 03:32:00,38.8,38.3,29.60,East,91,1.0,1.0,98,0.00,,,0.00,Wunderground v.1.15,2013-12-04 09:32:00,
2013-12-04 03:38:00,38.9,38.4,29.59,East,84,1.0,3.0,98,0.00,,,0.00,Wunderground v.1.15,2013-12-04 09:38:00,
2013-12-04 03:43:00,39.1,38.6,29.59,East,82,1.0,2.0,98,0.00,,,0.00,Wunderground v.1.15,2013-12-04 09:43:00,
2013-12-04 03:48:00,39.2,38.7,29.59,East,94,2.0,3.0,98,0.00,,,0.00,Wunderground v.1.15,2013-12-04 09:48:00,
2013-12-04 03:53:00,39.4,38.9,29.59,East,82,1.0,2.0,98,0.00,,,0.00,Wunderground v.1.15,2013-12-04 09:53:00,
2013-12-04 03:58:00,39.5,39.0,29.59,East,80,1.0,3.0,98,0.00,,,0.00,Wunderground v.1.15,2013-12-04 09:58:00,
2013-12-04 04:03:00,39.5,39.0,29.59,ENE,74,2.0,2.0,98,0.00,,,0.00,Wunderground v.1.15,2013-12-04 10:03:00,
2013-12-04 04:08:00,39.5,39.0,29.59,ENE,74,0.0,2.0,98,0.00,,,0.00,Wunderground v.1.15,2013-12-04 10:08:00,
2013-12-04 04:13:00,39.6,39.1,29.60,East,88,0.0,2.0,98,0.00,,,0.00,Wunderground v.1.15,2013-12-04 10:13:00,
2013-12-04 04:18:00,39.6,39.1,29.60,East,84,0.0,2.0,98,0.00,,,0.00,Wunderground v.1.15,2013-12-04 10:18:00,
2013-12-04 04:23:00,39.6,39.1,29.60,East,80,0.0,0.0,98,0.00,,,0.00,Wunderground v.1.15,2013-12-04 10:23:00,
2013-12-04 04:28:00,39.6,39.1,29.60,ENE,73,0.0,1.0,98,0.00,,,0.00,Wunderground v.1.15,2013-12-04 10:28:00,
2013-12-04 04:33:00,39.5,39.0,29.60,ENE,70,0.0,0.0,98,0.00,,,0.00,Wunderground v.1.15,2013-12-04 10:33:00,
2013-12-04 04:38:00,39.5,39.0,29.60,ENE,70,0.0,0.0,98,0.00,,,0.00,Wunderground v.1.15,2013-12-04 10:38:00,
2013-12-04 04:43:00,39.5,39.0,29.60,ENE,70,0.0,0.0,98,0.00,,,0.00,Wunderground v.1.15,2013-12-04 10:43:00,
2013-12-04 04:48:00,39.5,39.0,29.61,ENE,70,0.0,0.0,98,0.00,,,0.00,Wunderground v.1.15,2013-12-04 10:48:00,
2013-12-04 04:53:00,39.5,39.0,29.60,ENE,78,0.0,0.0,98,0.00,,,0.00,Wunderground v.1.15,2013-12-04 10:53:00,
2013-12-04 04:58:00,39.6,39.1,29.60,ENE,72,0.0,0.0,98,0.00,,,0.00,Wunderground v.1.15,2013-12-04 10:58:00,
2013-12-04 05:03:00,39.7,39.2,29.60,ENE,72,0.0,0.0,98,0.00,,,0.00,Wunderground v.1.15,2013-12-04 11:03:00,
2013-12-04 05:08:00,39.7,39.2,29.60,ENE,78,0.0,0.0,98,0.00,,,0.00,Wunderground v.1.15,2013-12-04 11:08:00,
2013-12-04 05:13:00,39.7,39.2,29.60,East,90,0.0,0.0,98,0.00,,,0.00,Wunderground v.1.15,2013-12-04 11:13:00,
2013-12-04 05:18:00,39.7,39.2,29.59,East,88,0.0,0.0,98,0.00,,,0.00,Wunderground v.1.15,2013-12-04 11:18:00,
2013-12-04 05:23:00,39.7,39.2,29.59,East,86,0.0,0.0,98,0.00,,,0.00,Wunderground v.1.15,2013-12-04 11:23:00,
2013-12-04 05:28:00,39.6,39.1,29.58,East,86,0.0,0.0,98,0.00,,,0.00,Wunderground v.1.15,2013-12-04 11:28:00,
2013-12-04 05:33:00,39.6,39.1,29.58,East,86,0.0,0.0,98,0.00,,,0.00,Wunderground v.1.15,2013-12-04 11:33:00,
2013-12-04 05:38:00,39.6,39.1,29.58,East,86,0.0,0.0,98,0.00,,,0.00,Wunderground v.1.15,2013-12-04 11:38:00,
2013-12-04 05:44:00,39.5,39.0,29.58,East,86,0.0,0.0,98,0.00,,,0.00,Wunderground v.1.15,2013-12-04 11:44:00,
2013-12-04 05:49:00,39.5,39.0,29.57,East,86,0.0,0.0,98,0.00,,,0.00,Wunderground v.1.15,2013-12-04 11:49:00,
2013-12-04 05:54:00,39.5,39.0,29.58,East,86,0.0,0.0,98,0.00,,,0.00,Wunderground v.1.15,2013-12-04 11:54:00,
2013-12-04 05:59:00,39.5,39.0,29.58,East,86,0.0,0.0,98,0.00,,,0.00,Wunderground v.1.15,2013-12-04 11:59:00,
2013-12-04 06:04:00,39.5,39.0,29.58,East,86,0.0,0.0,98,0.00,,,0.00,Wunderground v.1.15,2013-12-04 12:04:00,
2013-12-04 06:09:00,39.5,39.0,29.58,East,84,0.0,1.0,98,0.00,,,0.00,Wunderground v.1.15,2013-12-04 12:09:00,
2013-12-04 06:14:00,39.5,39.0,29.57,East,84,0.0,1.0,98,0.00,,,0.00,Wunderground v.1.15,2013-12-04 12:14:00,
2013-12-04 06:19:00,39.4,38.9,29.58,East,84,1.0,1.0,98,0.00,,,0.00,Wunderground v.1.15,2013-12-04 12:19:00,
2013-12-04 06:24:00,39.6,39.1,29.58,East,93,1.0,1.0,98,0.00,,,0.00,Wunderground v.1.15,2013-12-04 12:24:00,
2013-12-04 06:29:00,39.7,39.2,29.57,East,92,0.0,2.0,98,0.00,,,0.00,Wunderground v.1.15,2013-12-04 12:29:00,
2013-12-04 06:34:00,39.9,39.4,29.57,East,92,0.0,1.0,98,0.00,,,0.00,Wunderground v.1.15,2013-12-04 12:34:00,
2013-12-04 06:39:00,40.1,39.6,29.57,East,83,0.0,2.0,98,0.00,,,0.00,Wunderground v.1.15,2013-12-04 12:39:00,
2013-12-04 06:44:00,40.3,39.8,29.57,East,83,0.0,0.0,98,0.00,,,0.00,Wunderground v.1.15,2013-12-04 12:44:00,
2013-12-04 06:49:00,40.4,40.1,29.57,East,83,0.0,0.0,99,0.00,,,0.00,Wunderground v.1.15,2013-12-04 12:49:00,
2013-12-04 06:54:00,40.6,40.1,29.57,ENE,74,0.0,0.0,98,0.00,,,0.00,Wunderground v.1.15,2013-12-04 12:54:00,
2013-12-04 06:59:00,40.9,40.6,29.57,East,101,0.0,1.0,99,0.00,,,0.00,Wunderground v.1.15,2013-12-04 12:59:00,
2013-12-04 07:04:00,41.2,40.9,29.56,East,101,0.0,1.0,99,0.00,,,0.00,Wunderground v.1.15,2013-12-04 13:04:00,
2013-12-04 07:09:00,41.4,41.1,29.57,ESE,107,0.0,1.0,99,0.00,,,0.00,Wunderground v.1.15,2013-12-04 13:09:00,
2013-12-04 07:14:00,41.7,41.4,29.58,SSE,159,1.0,2.0,99,0.00,,,0.00,Wunderground v.1.15,2013-12-04 13:14:00,
2013-12-04 07:19:00,41.9,41.6,29.57,SSE,147,0.0,4.0,99,0.00,,,0.00,Wunderground v.1.15,2013-12-04 13:19:00,
2013-12-04 07:24:00,42.0,41.7,29.57,SSE,159,0.0,1.0,99,0.00,,,0.00,Wunderground v.1.15,2013-12-04 13:24:00,
2013-12-04 07:29:00,42.2,41.9,29.57,SSW,196,0.0,1.0,99,0.00,,,0.00,Wunderground v.1.15,2013-12-04 13:29:00,
2013-12-04 07:34:00,42.2,41.9,29.57,SSE,157,0.0,1.0,99,0.00,,,0.00,Wunderground v.1.15,2013-12-04 13:34:00,
2013-12-04 07:39:00,42.2,41.9,29.57,SSE,148,2.0,2.0,99,0.00,,,0.00,Wunderground v.1.15,2013-12-04 13:39:00,
2013-12-04 07:44:00,42.2,41.9,29.57,SSE,157,0.0,1.0,99,0.00,,,0.00,Wunderground v.1.15,2013-12-04 13:44:00,
2013-12-04 07:49:00,42.2,41.9,29.58,SE,136,1.0,4.0,99,0.00,,,0.00,Wunderground v.1.15,2013-12-04 13:49:00,
2013-12-04 07:54:00,42.1,41.8,29.58,SE,141,1.0,2.0,99,0.00,,,0.00,Wunderground v.1.15,2013-12-04 13:54:00,
2013-12-04 07:59:00,42.1,41.8,29.58,SE,142,2.0,4.0,99,0.00,,,0.00,Wunderground v.1.15,2013-12-04 13:59:00,
2013-12-04 08:08:00,42.0,41.7,29.58,SSE,167,1.0,1.0,99,0.00,,,0.00,Wunderground v.1.15,2013-12-04 14:08:00,
2013-12-04 08:13:00,41.9,41.4,29.58,SSE,166,0.0,1.0,98,0.00,,,0.00,Wunderground v.1.15,2013-12-04 14:13:00,
2013-12-04 08:18:00,41.9,41.4,29.58,SSE,166,0.0,1.0,98,0.00,,,0.00,Wunderground v.1.15,2013-12-04 14:18:00,
2013-12-04 08:23:00,41.9,41.4,29.57,SSE,165,0.0,0.0,98,0.00,,,0.00,Wunderground v.1.15,2013-12-04 14:23:00,
2013-12-04 08:28:00,42.0,41.7,29.57,SSE,165,0.0,0.0,99,0.00,,,0.00,Wunderground v.1.15,2013-12-04 14:28:00,
2013-12-04 08:33:00,42.0,41.7,29.57,SSE,163,0.0,0.0,99,0.00,,,0.00,Wunderground v.1.15,2013-12-04 14:33:00,
2013-12-04 08:38:00,42.2,41.9,29.58,SSE,163,0.0,0.0,99,0.00,,,0.00,Wunderground v.1.15,2013-12-04 14:38:00,
2013-12-04 08:45:00,42.4,42.1,29.58,SSE,163,0.0,0.0,99,0.00,,,0.00,Wunderground v.1.15,2013-12-04 14:45:00,
2013-12-04 08:50:00,42.5,42.2,29.58,SSE,163,0.0,4.0,99,0.00,,,0.00,Wunderground v.1.15,2013-12-04 14:50:00,
2013-12-04 09:05:00,42.7,42.4,29.58,SSE,163,0.0,0.0,99,0.00,,,0.00,Wunderground v.1.15,2013-12-04 15:05:00,
2013-12-04 09:10:00,42.8,42.5,29.58,SSE,163,0.0,0.0,99,0.00,,,0.00,Wunderground v.1.15,2013-12-04 15:10:00,
2013-12-04 09:15:00,42.8,42.5,29.57,SSE,163,0.0,0.0,99,0.00,,,0.00,Wunderground v.1.15,2013-12-04 15:15:00,
2013-12-04 09:20:00,42.9,42.6,29.57,SSE,163,0.0,0.0,99,0.00,,,0.00,Wunderground v.1.15,2013-12-04 15:20:00,
2013-12-04 09:25:00,42.9,42.6,29.56,SSE,163,0.0,0.0,99,0.00,,,0.00,Wunderground v.1.15,2013-12-04 15:25:00,
2013-12-04 09:30:00,42.9,42.6,29.56,SSE,161,0.0,1.0,99,0.00,,,0.00,Wunderground v.1.15,2013-12-04 15:30:00,
2013-12-04 09:35:00,42.9,42.6,29.56,SSE,161,0.0,1.0,99,0.00,,,0.00,Wunderground v.1.15,2013-12-04 15:35:00,
2013-12-04 09:40:00,42.9,42.6,29.55,SSE,161,0.0,1.0,99,0.00,,,0.00,Wunderground v.1.15,2013-12-04 15:40:00,
2013-12-04 09:45:00,42.9,42.6,29.55,SSE,156,0.0,1.0,99,0.00,,,0.00,Wunderground v.1.15,2013-12-04 15:45:00,
2013-12-04 09:50:00,42.8,42.5,29.56,SSE,156,0.0,1.0,99,0.00,,,0.00,Wunderground v.1.15,2013-12-04 15:50:00,
2013-12-04 09:55:00,42.8,42.5,29.56,SSE,156,0.0,0.0,99,0.00,,,0.00,Wunderground v.1.15,2013-12-04 15:55:00,
2013-12-04 10:00:00,42.9,42.4,29.56,SSE,156,0.0,0.0,98,0.00,,,0.00,Wunderground v.1.15,2013-12-04 16:00:00,
2013-12-04 10:05:00,43.1,42.8,29.56,SSE,156,0.0,0.0,99,0.00,,,0.00,Wunderground v.1.15,2013-12-04 16:05:00,
2013-12-04 10:10:00,43.2,42.9,29.56,SSE,156,0.0,0.0,99,0.00,,,0.00,Wunderground v.1.15,2013-12-04 16:10:00,
2013-12-04 10:15:00,43.2,42.9,29.56,SSE,156,0.0,1.0,99,0.00,,,0.00,Wunderground v.1.15,2013-12-04 16:15:00,
2013-12-04 10:20:00,43.3,43.0,29.56,SSE,156,0.0,1.0,99,0.00,,,0.00,Wunderground v.1.15,2013-12-04 16:20:00,
2013-12-04 10:25:00,43.3,43.0,29.55,SSE,156,0.0,0.0,99,0.00,,,0.01,Wunderground v.1.15,2013-12-04 16:25:00,
2013-12-04 10:30:00,43.4,43.1,29.55,SSE,156,0.0,1.0,99,0.00,,,0.01,Wunderground v.1.15,2013-12-04 16:30:00,
2013-12-04 10:35:00,43.4,43.1,29.54,SE,146,0.0,1.0,99,0.00,,,0.01,Wunderground v.1.15,2013-12-04 16:35:00,
2013-12-04 10:40:00,43.5,43.2,29.54,SE,146,0.0,1.0,99,0.00,,,0.01,Wunderground v.1.15,2013-12-04 16:40:00,
2013-12-04 10:45:00,43.7,43.4,29.54,SE,144,0.0,1.0,99,0.00,,,0.01,Wunderground v.1.15,2013-12-04 16:45:00,
2013-12-04 10:50:00,43.8,43.5,29.53,SE,128,0.0,2.0,99,0.00,,,0.01,Wunderground v.1.15,2013-12-04 16:50:00,
2013-12-04 10:55:00,44.0,43.7,29.53,ENE,78,1.0,1.0,99,0.00,,,0.01,Wunderground v.1.15,2013-12-04 16:55:00,
2013-12-04 11:00:00,44.2,43.9,29.53,ESE,104,0.0,1.0,99,0.00,,,0.01,Wunderground v.1.15,2013-12-04 17:00:00,
2013-12-04 11:05:00,44.3,44.0,29.53,ESE,104,0.0,0.0,99,0.00,,,0.01,Wunderground v.1.15,2013-12-04 17:05:00,
2013-12-04 11:10:00,44.5,44.2,29.52,ESE,104,0.0,0.0,99,0.00,,,0.01,Wunderground v.1.15,2013-12-04 17:10:00,
2013-12-04 11:15:00,44.6,44.3,29.52,ESE,109,0.0,0.0,99,0.00,,,0.01,Wunderground v.1.15,2013-12-04 17:15:00,
2013-12-04 11:20:00,44.7,44.4,29.52,ESE,109,0.0,0.0,99,0.00,,,0.01,Wunderground v.1.15,2013-12-04 17:20:00,
2013-12-04 11:25:00,44.8,44.5,29.51,ESE,110,0.0,0.0,99,0.00,,,0.01,Wunderground v.1.15,2013-12-04 17:25:00,
2013-12-04 11:30:00,45.0,44.7,29.51,East,96,0.0,2.0,99,0.00,,,0.01,Wunderground v.1.15,2013-12-04 17:30:00,
2013-12-04 11:35:00,45.1,44.8,29.51,SSE,153,0.0,0.0,99,0.00,,,0.01,Wunderground v.1.15,2013-12-04 17:35:00,
2013-12-04 11:40:00,45.2,44.9,29.50,SE,132,0.0,1.0,99,0.00,,,0.01,Wunderground v.1.15,2013-12-04 17:40:00,
2013-12-04 11:45:00,45.3,45.0,29.49,ESE,108,0.0,1.0,99,0.00,,,0.01,Wunderground v.1.15,2013-12-04 17:45:00,
2013-12-04 11:50:00,45.3,45.0,29.49,SW,218,0.0,1.0,99,0.00,,,0.01,Wunderground v.1.15,2013-12-04 17:50:00,
2013-12-04 11:56:00,45.4,45.1,29.49,SE,135,0.0,1.0,99,0.00,,,0.01,Wunderground v.1.15,2013-12-04 17:56:00,
2013-12-04 12:02:00,45.5,45.2,29.48,SE,141,1.0,1.0,99,0.00,,,0.01,Wunderground v.1.15,2013-12-04 18:02:00,
2013-12-04 12:07:00,45.5,45.2,29.48,SE,145,2.0,4.0,99,0.00,,,0.01,Wunderground v.1.15,2013-12-04 18:07:00,
2013-12-04 12:12:00,45.5,45.2,29.48,SSE,147,1.0,1.0,99,0.00,,,0.01,Wunderground v.1.15,2013-12-04 18:12:00,
2013-12-04 12:17:00,45.6,45.3,29.48,SE,144,0.0,2.0,99,0.00,,,0.01,Wunderground v.1.15,2013-12-04 18:17:00,
2013-12-04 12:22:00,45.7,45.4,29.48,SSE,151,2.0,2.0,99,0.00,,,0.01,Wunderground v.1.15,2013-12-04 18:22:00,
2013-12-04 12:27:00,45.7,45.4,29.48,SSE,159,2.0,4.0,99,0.00,,,0.01,Wunderground v.1.15,2013-12-04 18:27:00,
2013-12-04 12:32:00,45.8,45.5,29.47,SSE,154,1.0,4.0,99,0.00,,,0.01,Wunderground v.1.15,2013-12-04 18:32:00,
2013-12-04 12:38:00,45.8,45.5,29.47,SE,144,2.0,4.0,99,0.00,,,0.02,Wunderground v.1.15,2013-12-04 18:38:00,
2013-12-04 12:43:00,46.0,45.7,29.46,SE,138,2.0,2.0,99,0.00,,,0.02,Wunderground v.1.15,2013-12-04 18:43:00,
2013-12-04 12:52:00,46.3,46.0,29.45,SSE,160,1.0,2.0,99,0.00,,,0.02,Wunderground v.1.15,2013-12-04 18:52:00,
2013-12-04 12:57:00,46.4,46.1,29.44,South,175,1.0,2.0,99,0.00,,,0.02,Wunderground v.1.15,2013-12-04 18:57:00,
2013-12-04 13:02:00,46.5,46.2,29.42,ESE,121,0.0,0.0,99,0.00,,,0.02,Wunderground v.1.15,2013-12-04 19:02:00,
2013-12-04 13:07:00,46.6,46.3,29.43,SSE,153,4.0,4.0,99,0.00,,,0.02,Wunderground v.1.15,2013-12-04 19:07:00,
2013-12-04 13:12:00,46.9,46.6,29.43,SE,146,0.0,2.0,99,0.00,,,0.02,Wunderground v.1.15,2013-12-04 19:12:00,
2013-12-04 13:18:00,47.1,46.8,29.43,SSE,166,5.0,5.0,99,0.00,,,0.02,Wunderground v.1.15,2013-12-04 19:18:00,
2013-12-04 13:23:00,47.2,46.9,29.42,SSE,161,4.0,4.0,99,0.00,,,0.02,Wunderground v.1.15,2013-12-04 19:23:00,
2013-12-04 13:28:00,47.2,46.9,29.42,South,172,7.0,10.0,99,0.00,,,0.02,Wunderground v.1.15,2013-12-04 19:28:00,
2013-12-04 13:33:00,47.3,47.0,29.43,South,180,7.0,9.0,99,0.00,,,0.02,Wunderground v.1.15,2013-12-04 19:33:00,
2013-12-04 13:38:00,47.2,46.9,29.43,SSE,166,8.0,12.0,99,0.00,,,0.02,Wunderground v.1.15,2013-12-04 19:38:00,
2013-12-04 13:43:00,47.3,47.0,29.43,SSE,166,10.0,11.0,99,0.00,,,0.02,Wunderground v.1.15,2013-12-04 19:43:00,
2013-12-04 13:48:00,47.3,47.0,29.43,South,186,10.0,12.0,99,0.00,,,0.02,Wunderground v.1.15,2013-12-04 19:48:00,
2013-12-04 13:53:00,47.2,46.9,29.43,South,177,10.0,10.0,99,0.00,,,0.02,Wunderground v.1.15,2013-12-04 19:53:00,
2013-12-04 13:58:00,47.1,46.8,29.44,SSW,193,7.0,10.0,99,0.00,,,0.02,Wunderground v.1.15,2013-12-04 19:58:00,
2013-12-04 14:03:00,47.0,46.7,29.45,WSW,248,9.0,9.0,99,0.00,,,0.02,Wunderground v.1.15,2013-12-04 20:03:00,
2013-12-04 14:08:00,47.0,46.7,29.45,West,263,11.0,16.0,99,0.00,,,0.02,Wunderground v.1.15,2013-12-04 20:08:00,
2013-12-04 14:13:00,46.2,45.9,29.45,WSW,255,9.0,11.0,99,0.00,,,0.02,Wunderground v.1.15,2013-12-04 20:13:00,
2013-12-04 14:18:00,45.5,45.2,29.45,WSW,241,10.0,14.0,99,0.00,,,0.03,Wunderground v.1.15,2013-12-04 20:18:00,
2013-12-04 14:23:00,45.1,44.6,29.46,WSW,245,11.0,15.0,98,0.00,,,0.03,Wunderground v.1.15,2013-12-04 20:23:00,
2013-12-04 14:28:00,44.7,44.2,29.46,WSW,252,10.0,17.0,98,0.00,,,0.03,Wunderground v.1.15,2013-12-04 20:28:00,
2013-12-04 14:33:00,44.3,43.8,29.46,WSW,238,13.0,14.0,98,0.00,,,0.03,Wunderground v.1.15,2013-12-04 20:33:00,
2013-12-04 14:38:00,43.7,43.2,29.46,West,259,18.0,19.0,98,0.00,,,0.03,Wunderground v.1.15,2013-12-04 20:38:00,
2013-12-04 14:43:00,42.6,42.1,29.47,WSW,256,16.0,16.0,98,0.00,,,0.03,Wunderground v.1.15,2013-12-04 20:43:00,
2013-12-04 14:48:00,41.9,41.4,29.47,West,271,13.0,20.0,98,0.00,,,0.03,Wunderground v.1.15,2013-12-04 20:48:00,
2013-12-04 14:53:00,41.3,40.8,29.48,West,281,13.0,14.0,98,0.00,,,0.03,Wunderground v.1.15,2013-12-04 20:53:00,
2013-12-04 14:58:00,40.6,40.1,29.48,West,268,13.0,17.0,98,0.00,,,0.03,Wunderground v.1.15,2013-12-04 20:58:00,
2013-12-04 15:03:00,40.1,39.6,29.48,West,262,14.0,17.0,98,0.00,,,0.03,Wunderground v.1.15,2013-12-04 21:03:00,
2013-12-04 15:08:00,39.7,39.2,29.49,West,280,13.0,18.0,98,0.00,,,0.03,Wunderground v.1.15,2013-12-04 21:08:00,
2013-12-04 15:13:00,39.0,38.5,29.49,West,280,17.0,24.0,98,0.00,,,0.03,Wunderground v.1.15,2013-12-04 21:13:00,
2013-12-04 15:18:00,37.7,36.9,29.50,WNW,282,15.0,24.0,97,0.00,,,0.03,Wunderground v.1.15,2013-12-04 21:18:00,
2013-12-04 15:23:00,36.7,35.9,29.51,WNW,288,17.0,19.0,97,0.00,,,0.04,Wunderground v.1.15,2013-12-04 21:23:00,
2013-12-04 15:28:00,36.2,35.4,29.52,West,268,15.0,20.0,97,0.00,,,0.04,Wunderground v.1.15,2013-12-04 21:28:00,
2013-12-04 15:33:00,36.0,35.5,29.52,WNW,286,14.0,17.0,98,0.00,,,0.04,Wunderground v.1.15,2013-12-04 21:33:00,
2013-12-04 15:38:00,35.9,35.4,29.52,West,266,13.0,18.0,98,0.00,,,0.04,Wunderground v.1.15,2013-12-04 21:38:00,
2013-12-04 15:43:00,35.7,35.2,29.52,WNW,294,13.0,17.0,98,0.00,,,0.04,Wunderground v.1.15,2013-12-04 21:43:00,
2013-12-04 15:48:00,35.6,35.1,29.53,WNW,284,18.0,21.0,98,0.00,,,0.04,Wunderground v.1.15,2013-12-04 21:48:00,
2013-12-04 15:54:00,35.5,35.0,29.54,West,273,14.0,18.0,98,0.00,,,0.04,Wunderground v.1.15,2013-12-04 21:54:00,
2013-12-04 15:59:00,35.5,35.0,29.54,West,265,17.0,18.0,98,0.00,,,0.04,Wunderground v.1.15,2013-12-04 21:59:00,
2013-12-04 16:04:00,35.3,34.8,29.54,WNW,283,16.0,16.0,98,0.00,,,0.04,Wunderground v.1.15,2013-12-04 22:04:00,
2013-12-04 16:09:00,35.2,34.7,29.54,West,270,13.0,13.0,98,0.00,,,0.04,Wunderground v.1.15,2013-12-04 22:09:00,
2013-12-04 16:14:00,35.0,34.2,29.54,WNW,293,16.0,20.0,97,0.00,,,0.04,Wunderground v.1.15,2013-12-04 22:14:00,
2013-12-04 16:19:00,34.8,34.0,29.54,West,281,17.0,20.0,97,0.00,,,0.04,Wunderground v.1.15,2013-12-04 22:19:00,
2013-12-04 16:24:00,34.7,33.9,29.54,WNW,283,15.0,16.0,97,0.00,,,0.04,Wunderground v.1.15,2013-12-04 22:24:00,
2013-12-04 16:29:00,34.6,33.8,29.55,West,274,13.0,20.0,97,0.00,,,0.04,Wunderground v.1.15,2013-12-04 22:29:00,
2013-12-04 16:34:00,34.5,33.7,29.56,West,271,13.0,15.0,97,0.00,,,0.04,Wunderground v.1.15,2013-12-04 22:34:00,
2013-12-04 16:39:00,34.3,33.5,29.56,West,272,17.0,18.0,97,0.00,,,0.04,Wunderground v.1.15,2013-12-04 22:39:00,
2013-12-04 16:44:00,34.1,33.3,29.56,West,278,15.0,17.0,97,0.00,,,0.04,Wunderground v.1.15,2013-12-04 22:44:00,
2013-12-04 16:49:00,34.0,33.2,29.56,West,269,12.0,19.0,97,0.00,,,0.04,Wunderground v.1.15,2013-12-04 22:49:00,
2013-12-04 16:54:00,33.7,32.9,29.57,WNW,288,10.0,16.0,97,0.00,,,0.04,Wunderground v.1.15,2013-12-04 22:54:00,
2013-12-04 16:59:00,33.4,32.4,29.58,West,277,16.0,20.0,96,0.00,,,0.04,Wunderground v.1.15,2013-12-04 22:59:00,
2013-12-04 17:04:00,32.5,31.2,29.58,West,259,15.0,18.0,95,0.00,,,0.04,Wunderground v.1.15,2013-12-04 23:04:00,
2013-12-04 17:09:00,32.1,31.1,29.59,West,275,16.0,16.0,96,0.00,,,0.04,Wunderground v.1.15,2013-12-04 23:09:00,
2013-12-04 17:14:00,32.1,31.1,29.59,West,270,8.0,14.0,96,0.00,,,0.04,Wunderground v.1.15,2013-12-04 23:14:00,
2013-12-04 17:19:00,32.1,31.1,29.59,West,277,9.0,14.0,96,0.00,,,0.04,Wunderground v.1.15,2013-12-04 23:19:00,
2013-12-04 17:24:00,32.0,31.0,29.59,West,273,11.0,16.0,96,0.00,,,0.04,Wunderground v.1.15,2013-12-04 23:24:00,
2013-12-04 17:29:00,31.8,30.8,29.60,WNW,291,12.0,17.0,96,0.00,,,0.04,Wunderground v.1.15,2013-12-04 23:29:00,
2013-12-04 17:34:00,31.8,30.8,29.60,WSW,252,11.0,15.0,96,0.00,,,0.04,Wunderground v.1.15,2013-12-04 23:34:00,
2013-12-04 17:39:00,31.7,30.4,29.61,West,267,19.0,20.0,95,0.00,,,0.04,Wunderground v.1.15,2013-12-04 23:39:00,
2013-12-04 17:44:00,31.4,30.1,29.61,West,279,12.0,20.0,95,0.00,,,0.04,Wunderground v.1.15,2013-12-04 23:44:00,
2013-12-04 17:49:00,31.3,30.0,29.61,WNW,285,7.0,20.0,95,0.00,,,0.04,Wunderground v.1.15,2013-12-04 23:49:00,
2013-12-04 17:54:00,31.2,29.9,29.61,WNW,285,15.0,17.0,95,0.00,,,0.04,Wunderground v.1.15,2013-12-04 23:54:00,
2013-12-04 17:59:00,31.0,29.7,29.62,West,281,17.0,18.0,95,0.00,,,0.04,Wunderground v.1.15,2013-12-04 23:59:00,
2013-12-04 18:04:00,30.6,29.3,29.62,WNW,285,10.0,17.0,95,0.00,,,0.04,Wunderground v.1.15,2013-12-05 00:04:00,
2013-12-04 18:09:00,30.3,28.8,29.61,West,265,12.0,16.0,94,0.00,,,0.04,Wunderground v.1.15,2013-12-05 00:09:00,
2013-12-04 18:14:00,30.1,28.6,29.61,WNW,300,15.0,18.0,94,0.00,,,0.04,Wunderground v.1.15,2013-12-05 00:14:00,
2013-12-04 18:19:00,30.0,28.5,29.62,West,265,14.0,19.0,94,0.00,,,0.04,Wunderground v.1.15,2013-12-05 00:19:00,
2013-12-04 18:24:00,29.6,28.1,29.62,WSW,258,16.0,19.0,94,0.00,,,0.04,Wunderground v.1.15,2013-12-05 00:24:00,
2013-12-04 18:29:00,29.4,27.9,29.62,West,269,15.0,19.0,94,0.00,,,0.04,Wunderground v.1.15,2013-12-05 00:29:00,
2013-12-04 18:35:00,29.4,27.9,29.63,West,274,14.0,19.0,94,0.00,,,0.04,Wunderground v.1.15,2013-12-05 00:35:00,
2013-12-04 18:40:00,29.3,27.8,29.63,West,269,8.0,19.0,94,0.00,,,0.04,Wunderground v.1.15,2013-12-05 00:40:00,
2013-12-04 18:45:00,28.9,27.1,29.64,West,269,13.0,20.0,93,0.00,,,0.04,Wunderground v.1.15,2013-12-05 00:45:00,
2013-12-04 18:50:00,28.5,26.7,29.65,West,281,13.0,25.0,93,0.00,,,0.04,Wunderground v.1.15,2013-12-05 00:50:00,
2013-12-04 18:55:00,28.4,26.9,29.65,West,272,15.0,18.0,94,0.00,,,0.04,Wunderground v.1.15,2013-12-05 00:55:00,
2013-12-04 19:00:00,28.1,26.3,29.64,West,274,14.0,15.0,93,0.00,,,0.04,Wunderground v.1.15,2013-12-05 01:00:00,
2013-12-04 19:05:00,28.0,26.2,29.65,West,275,19.0,19.0,93,0.00,,,0.04,Wunderground v.1.15,2013-12-05 01:05:00,
2013-12-04 19:10:00,28.1,26.3,29.66,West,265,19.0,19.0,93,0.00,,,0.04,Wunderground v.1.15,2013-12-05 01:10:00,
2013-12-04 19:15:00,28.1,26.3,29.66,West,278,14.0,18.0,93,0.00,,,0.04,Wunderground v.1.15,2013-12-05 01:15:00,
2013-12-04 19:20:00,27.9,26.1,29.67,West,260,7.0,18.0,93,0.00,,,0.04,Wunderground v.1.15,2013-12-05 01:20:00,
2013-12-04 19:25:00,27.6,25.6,29.67,West,278,10.0,20.0,92,0.00,,,0.04,Wunderground v.1.15,2013-12-05 01:25:00,
2013-12-04 19:30:00,27.4,25.6,29.67,West,270,14.0,20.0,93,0.00,,,0.04,Wunderground v.1.15,2013-12-05 01:30:00,
2013-12-04 19:35:00,27.4,25.6,29.68,West,274,13.0,20.0,93,0.00,,,0.04,Wunderground v.1.15,2013-12-05 01:35:00,
2013-12-04 19:40:00,27.3,25.5,29.68,West,271,14.0,20.0,93,0.00,,,0.04,Wunderground v.1.15,2013-12-05 01:40:00,
2013-12-04 19:45:00,27.1,25.1,29.69,West,265,19.0,22.0,92,0.00,,,0.04,Wunderground v.1.15,2013-12-05 01:45:00,
2013-12-04 19:50:00,26.9,24.9,29.70,West,266,15.0,23.0,92,0.00,,,0.04,Wunderground v.1.15,2013-12-05 01:50:00,
2013-12-04 19:55:00,26.8,24.8,29.69,WSW,257,18.0,21.0,92,0.00,,,0.04,Wunderground v.1.15,2013-12-05 01:55:00,
2013-12-04 20:00:00,26.7,24.7,29.70,West,266,12.0,16.0,92,0.00,,,0.04,Wunderground v.1.15,2013-12-05 02:00:00,
2013-12-04 20:05:00,26.6,24.6,29.71,WSW,254,17.0,21.0,92,0.00,,,0.04,Wunderground v.1.15,2013-12-05 02:05:00,
2013-12-04 20:10:00,26.4,24.4,29.70,West,276,11.0,21.0,92,0.00,,,0.04,Wunderground v.1.15,2013-12-05 02:10:00,
2013-12-04 20:15:00,26.2,23.9,29.70,West,267,17.0,20.0,91,0.00,,,0.04,Wunderground v.1.15,2013-12-05 02:15:00,
2013-12-04 20:20:00,25.9,23.6,29.71,West,265,14.0,22.0,91,0.00,,,0.04,Wunderground v.1.15,2013-12-05 02:20:00,
2013-12-04 20:25:00,25.8,23.5,29.72,West,262,16.0,21.0,91,0.00,,,0.04,Wunderground v.1.15,2013-12-05 02:25:00,
2013-12-04 20:30:00,25.6,23.3,29.71,West,264,14.0,22.0,91,0.00,,,0.04,Wunderground v.1.15,2013-12-05 02:30:00,
2013-12-04 20:35:00,25.5,23.2,29.72,WNW,286,10.0,19.0,91,0.00,,,0.04,Wunderground v.1.15,2013-12-05 02:35:00,
2013-12-04 20:40:00,25.4,23.1,29.72,WSW,258,12.0,22.0,91,0.00,,,0.04,Wunderground v.1.15,2013-12-05 02:40:00,
2013-12-04 20:45:00,25.1,22.6,29.72,West,273,12.0,21.0,90,0.00,,,0.04,Wunderground v.1.15,2013-12-05 02:45:00,
2013-12-04 20:50:00,24.7,21.9,29.73,West,272,16.0,25.0,89,0.00,,,0.04,Wunderground v.1.15,2013-12-05 02:50:00,
2013-12-04 20:55:00,24.5,22.0,29.73,West,279,10.0,21.0,90,0.00,,,0.04,Wunderground v.1.15,2013-12-05 02:55:00,
2013-12-04 21:00:00,24.7,22.2,29.74,West,280,14.0,16.0,90,0.00,,,0.04,Wunderground v.1.15,2013-12-05 03:00:00,
2013-12-04 21:05:00,24.5,22.0,29.74,West,264,21.0,21.0,90,0.00,,,0.04,Wunderground v.1.15,2013-12-05 03:05:00,
2013-12-04 21:10:00,24.5,22.0,29.74,West,273,15.0,22.0,90,0.00,,,0.04,Wunderground v.1.15,2013-12-05 03:10:00,
2013-12-04 21:15:00,24.2,21.4,29.74,West,271,14.0,20.0,89,0.00,,,0.04,Wunderground v.1.15,2013-12-05 03:15:00,
2013-12-04 21:20:00,24.2,21.7,29.75,WSW,237,15.0,20.0,90,0.00,,,0.04,Wunderground v.1.15,2013-12-05 03:20:00,
2013-12-04 21:25:00,24.1,21.6,29.76,West,259,10.0,18.0,90,0.00,,,0.04,Wunderground v.1.15,2013-12-05 03:25:00,
2013-12-04 21:30:00,24.0,21.5,29.76,WSW,258,8.0,18.0,90,0.00,,,0.04,Wunderground v.1.15,2013-12-05 03:30:00,
2013-12-04 21:35:00,23.7,20.9,29.77,West,262,9.0,19.0,89,0.00,,,0.04,Wunderground v.1.15,2013-12-05 03:35:00,
2013-12-04 21:40:00,23.5,20.7,29.77,West,263,17.0,19.0,89,0.00,,,0.04,Wunderground v.1.15,2013-12-05 03:40:00,
2013-12-04 21:45:00,23.5,20.7,29.77,West,272,15.0,19.0,89,0.00,,,0.04,Wunderground v.1.15,2013-12-05 03:45:00,
2013-12-04 21:50:00,23.5,20.7,29.77,West,278,11.0,20.0,89,0.00,,,0.04,Wunderground v.1.15,2013-12-05 03:50:00,
2013-12-04 21:55:00,23.6,20.8,29.77,WSW,250,12.0,17.0,89,0.00,,,0.04,Wunderground v.1.15,2013-12-05 03:55:00,
2013-12-04 22:00:00,23.5,20.7,29.77,WNW,288,12.0,15.0,89,0.00,,,0.04,Wunderground v.1.15,2013-12-05 04:00:00,
2013-12-04 22:05:00,23.6,21.1,29.78,WSW,248,15.0,17.0,90,0.00,,,0.04,Wunderground v.1.15,2013-12-05 04:05:00,
2013-12-04 22:10:00,23.4,20.6,29.78,West,273,13.0,20.0,89,0.00,,,0.04,Wunderground v.1.15,2013-12-05 04:10:00,
2013-12-04 22:15:00,23.2,20.4,29.79,West,259,13.0,22.0,89,0.00,,,0.04,Wunderground v.1.15,2013-12-05 04:15:00,
2013-12-04 22:20:00,23.2,20.4,29.79,West,269,17.0,23.0,89,0.00,,,0.04,Wunderground v.1.15,2013-12-05 04:20:00,
2013-12-04 22:26:00,23.1,20.1,29.78,West,263,18.0,18.0,88,0.00,,,0.04,Wunderground v.1.15,2013-12-05 04:26:00,
2013-12-04 22:31:00,23.0,20.2,29.78,WSW,254,14.0,21.0,89,0.00,,,0.04,Wunderground v.1.15,2013-12-05 04:31:00,
2013-12-04 22:36:00,23.0,20.2,29.78,West,276,17.0,18.0,89,0.00,,,0.04,Wunderground v.1.15,2013-12-05 04:36:00,
2013-12-04 22:41:00,22.9,20.1,29.78,West,269,14.0,19.0,89,0.00,,,0.04,Wunderground v.1.15,2013-12-05 04:41:00,
2013-12-04 22:46:00,22.9,20.1,29.79,West,278,11.0,19.0,89,0.00,,,0.04,Wunderground v.1.15,2013-12-05 04:46:00,
2013-12-04 22:52:00,22.8,20.0,29.78,West,281,16.0,16.0,89,0.00,,,0.04,Wunderground v.1.15,2013-12-05 04:52:00,
2013-12-04 22:57:00,22.8,20.0,29.79,West,280,12.0,19.0,89,0.00,,,0.04,Wunderground v.1.15,2013-12-05 04:57:00,
2013-12-04 23:01:00,22.6,19.8,29.80,WNW,288,19.0,19.0,89,0.00,,,0.04,Wunderground v.1.15,2013-12-05 05:01:00,
2013-12-04 23:02:00,22.6,19.8,29.80,West,281,14.0,14.0,89,0.00,,,0.04,Wunderground v.1.15,2013-12-05 05:02:00,
2013-12-04 23:03:00,22.6,19.8,29.80,WNW,283,20.0,20.0,89,0.00,,,0.04,Wunderground v.1.15,2013-12-05 05:03:00,
2013-12-04 23:08:00,22.6,19.8,29.79,WNW,284,13.0,20.0,89,0.00,,,0.04,Wunderground v.1.15,2013-12-05 05:08:00,
2013-12-04 23:13:00,22.7,19.9,29.80,West,281,14.0,21.0,89,0.00,,,0.04,Wunderground v.1.15,2013-12-05 05:13:00,
2013-12-04 23:18:00,22.6,19.8,29.81,NW,306,17.0,24.0,89,0.00,,,0.04,Wunderground v.1.15,2013-12-05 05:18:00,
2013-12-04 23:23:00,22.6,19.8,29.82,WNW,297,17.0,22.0,89,0.00,,,0.04,Wunderground v.1.15,2013-12-05 05:23:00,
2013-12-04 23:28:00,22.5,19.7,29.82,West,272,16.0,23.0,89,0.00,,,0.04,Wunderground v.1.15,2013-12-05 05:28:00,
2013-12-04 23:33:00,22.4,19.6,29.83,West,278,19.0,20.0,89,0.00,,,0.04,Wunderground v.1.15,2013-12-05 05:33:00,
2013-12-04 23:38:00,22.3,19.6,29.84,WSW,254,14.0,21.0,89,0.00,,,0.04,Wunderground v.1.15,2013-12-05 05:38:00,
2013-12-04 23:43:00,22.2,19.5,29.84,West,269,15.0,23.0,89,0.00,,,0.04,Wunderground v.1.15,2013-12-05 05:43:00,
2013-12-04 23:48:00,22.1,19.4,29.85,West,277,14.0,24.0,89,0.00,,,0.04,Wunderground v.1.15,2013-12-05 05:48:00,
2013-12-04 23:53:00,22.0,19.3,29.85,West,267,14.0,17.0,89,0.00,,,0.04,Wunderground v.1.15,2013-12-05 05:53:00,